Time;durP1;ratioP1;P1;durP2;ratioP2;P2;SDS_P1;SDS_P2;PMS_P1;PMS_P2;Temp;Humidity;BMP_temperature;BMP_pressure;BME280_temperature;BME280_humidity;BME280_pressure;Samples;Min_cycle;Max_cycle;Signal;HPM_P1;HPM_P2
2023/08/08 00:00:14;;;;;;;6.87;2.70;;;16.80;74.10;;;;;;5045816;28;20924;-81
2023/08/08 00:02:42;;;;;;;6.23;2.70;;;16.80;74.20;;;;;;5046726;28;20462;-80
2023/08/08 00:05:10;;;;;;;8.43;2.80;;;16.80;74.20;;;;;;5046425;28;20459;-82
2023/08/08 00:07:38;;;;;;;4.90;2.30;;;16.80;74.30;;;;;;5048937;28;20553;-79
2023/08/08 00:10:08;;;;;;;6.90;2.67;;;16.80;74.40;;;;;;5049643;28;22163;-79
2023/08/08 00:12:38;;;;;;;5.50;2.70;;;16.80;74.40;;;;;;5043815;28;20896;-81
2023/08/08 00:15:08;;;;;;;5.40;2.40;;;16.80;74.50;;;;;;5046053;28;20539;-81
2023/08/08 00:17:36;;;;;;;5.77;2.97;;;16.80;74.50;;;;;;5047950;28;20459;-79
2023/08/08 00:20:05;;;;;;;6.00;2.40;;;16.80;74.50;;;;;;5048462;28;21267;-79
2023/08/08 00:22:33;;;;;;;6.30;2.33;;;16.80;74.60;;;;;;5043219;28;20467;-79
2023/08/08 00:25:02;;;;;;;13.13;2.90;;;16.80;74.60;;;;;;5075828;28;21002;-80
2023/08/08 00:27:30;;;;;;;6.83;2.83;;;16.80;74.60;;;;;;5050288;28;20461;-80
2023/08/08 00:29:58;;;;;;;7.80;3.13;;;16.80;74.70;;;;;;5051541;28;20474;-80
2023/08/08 00:32:27;;;;;;;5.93;2.60;;;16.80;74.70;;;;;;5047339;28;20491;-80
2023/08/08 00:34:55;;;;;;;6.03;3.20;;;16.80;74.70;;;;;;5049516;28;20458;-81
2023/08/08 00:37:23;;;;;;;7.53;3.00;;;16.80;74.80;;;;;;5044791;28;20470;-80
2023/08/08 00:39:51;;;;;;;5.70;2.70;;;16.70;74.80;;;;;;5042990;28;20543;-80
2023/08/08 00:42:19;;;;;;;7.10;2.50;;;16.70;74.90;;;;;;5048155;28;20555;-81
2023/08/08 00:44:47;;;;;;;6.83;2.80;;;16.70;74.90;;;;;;5049167;28;20952;-81
2023/08/08 00:47:15;;;;;;;6.33;2.70;;;16.70;75.00;;;;;;5045175;28;20546;-81
2023/08/08 00:49:46;;;;;;;6.87;3.20;;;16.70;75.00;;;;;;5048278;28;20469;-82
2023/08/08 00:52:14;;;;;;;7.73;2.67;;;16.70;75.00;;;;;;5077309;28;20512;-82
2023/08/08 00:54:42;;;;;;;6.80;2.57;;;16.70;75.00;;;;;;5044652;28;20457;-80
2023/08/08 00:57:10;;;;;;;5.47;2.63;;;16.70;75.00;;;;;;5045880;28;20460;-80
2023/08/08 00:59:38;;;;;;;5.80;3.17;;;16.60;75.00;;;;;;5047437;28;20538;-80
2023/08/08 01:02:07;;;;;;;6.63;2.60;;;16.60;75.10;;;;;;5043238;28;20476;-81
2023/08/08 01:04:36;;;;;;;5.63;2.97;;;16.60;75.10;;;;;;5045821;28;20457;-80
2023/08/08 01:07:13;;;;;;;5.43;2.63;;;16.60;75.10;;;;;;5038504;28;20539;-80
2023/08/08 01:09:47;;;;;;;5.67;2.40;;;16.60;75.20;;;;;;5073530;28;20455;-78
2023/08/08 01:12:16;;;;;;;6.47;3.10;;;16.60;75.20;;;;;;5072468;28;20479;-81
2023/08/08 01:14:45;;;;;;;7.07;3.47;;;16.60;75.20;;;;;;5044493;28;20494;-78
2023/08/08 01:21:30;;;;;;;5.00;2.60;;;16.60;75.20;;;;;;5044200;28;20911;-81
2023/08/08 01:24:14;;;;;;;4.43;2.30;;;16.60;75.30;;;;;;5046926;28;20481;-79
2023/08/08 01:26:43;;;;;;;6.97;3.10;;;16.60;75.30;;;;;;5048838;28;20950;-80
2023/08/08 01:29:29;;;;;;;7.47;2.90;;;16.60;75.30;;;;;;5041294;28;20456;-81
2023/08/08 01:36:55;;;;;;;5.90;2.60;;;16.50;75.30;;;;;;5048029;28;20585;-80
2023/08/08 01:39:31;;;;;;;9.20;2.13;;;16.40;75.50;;;;;;5055476;28;20863;-79
2023/08/08 01:42:02;;;;;;;6.10;3.03;;;16.40;75.50;;;;;;5074480;28;20456;-79
2023/08/08 01:44:32;;;;;;;5.17;2.63;;;16.40;75.60;;;;;;5044499;28;20862;-79
2023/08/08 01:47:00;;;;;;;5.90;2.23;;;16.40;75.60;;;;;;5046574;28;21376;-79
2023/08/08 01:49:29;;;;;;;5.57;2.50;;;16.40;75.70;;;;;;5041341;28;20485;-79
2023/08/08 01:51:57;;;;;;;7.93;2.73;;;16.40;75.70;;;;;;5045890;28;20502;-80
2023/08/08 01:54:25;;;;;;;5.97;2.80;;;16.40;75.70;;;;;;5039711;28;20460;-79
2023/08/08 01:56:55;;;;;;;5.63;2.43;;;16.40;75.70;;;;;;5075343;28;20486;-79
2023/08/08 01:59:23;;;;;;;8.17;2.90;;;16.40;75.70;;;;;;5043125;28;20542;-81
2023/08/08 02:01:51;;;;;;;6.20;2.90;;;16.50;75.60;;;;;;5071317;28;20581;-79
2023/08/08 02:04:20;;;;;;;7.77;3.10;;;16.50;75.60;;;;;;5046595;28;20457;-79
2023/08/08 02:06:48;;;;;;;8.50;2.20;;;16.50;75.60;;;;;;5043609;28;20451;-81
2023/08/08 02:09:16;;;;;;;5.13;2.60;;;16.50;75.50;;;;;;5046015;28;20455;-80
2023/08/08 02:11:47;;;;;;;4.90;2.20;;;16.50;75.50;;;;;;5045927;28;20549;-81
2023/08/08 02:14:17;;;;;;;5.17;2.70;;;16.50;75.50;;;;;;5043599;28;20452;-80
2023/08/08 02:16:45;;;;;;;11.10;2.10;;;16.50;75.50;;;;;;5042075;28;20468;-80
2023/08/08 02:19:14;;;;;;;5.40;2.80;;;16.50;75.40;;;;;;5045827;28;20546;-80
2023/08/08 02:21:42;;;;;;;5.77;2.53;;;16.50;75.50;;;;;;5047154;28;20488;-81
2023/08/08 02:24:11;;;;;;;5.37;2.20;;;16.50;75.50;;;;;;5046993;28;20525;-81
2023/08/08 02:26:39;;;;;;;4.47;2.10;;;16.40;75.50;;;;;;5072265;28;20460;-80
2023/08/08 02:29:09;;;;;;;6.20;2.87;;;16.40;75.50;;;;;;5050227;28;20461;-79
2023/08/08 02:31:38;;;;;;;5.63;2.10;;;16.40;75.50;;;;;;5048498;28;21041;-79
2023/08/08 02:34:06;;;;;;;4.47;2.33;;;16.40;75.50;;;;;;5047768;28;20480;-80
2023/08/08 02:36:34;;;;;;;7.10;2.07;;;16.30;75.50;;;;;;5048013;28;20494;-80
2023/08/08 02:39:03;;;;;;;6.00;2.40;;;16.30;75.40;;;;;;5045229;28;20470;-80
2023/08/08 02:41:31;;;;;;;7.07;2.57;;;16.30;75.40;;;;;;5044443;28;20469;-81
2023/08/08 02:44:00;;;;;;;5.67;2.10;;;16.30;75.50;;;;;;5049118;28;20452;-79
2023/08/08 02:46:28;;;;;;;9.53;2.57;;;16.20;75.50;;;;;;5049090;28;20454;-80
2023/08/08 02:48:57;;;;;;;5.70;2.43;;;16.20;75.50;;;;;;5074463;28;20851;-80
2023/08/08 02:51:26;;;;;;;5.03;2.60;;;16.20;75.50;;;;;;5047938;28;20509;-80
2023/08/08 02:53:54;;;;;;;5.00;2.20;;;16.20;75.40;;;;;;5075379;28;20467;-80
2023/08/08 02:56:22;;;;;;;7.53;2.60;;;16.20;75.40;;;;;;5044364;28;20459;-81
2023/08/08 02:58:52;;;;;;;5.90;2.27;;;16.20;75.40;;;;;;5045960;28;20822;-79
2023/08/08 03:01:21;;;;;;;5.07;1.90;;;16.10;75.40;;;;;;5076800;28;20576;-81
2023/08/08 03:03:49;;;;;;;5.00;2.27;;;16.10;75.50;;;;;;5043781;28;20463;-81
2023/08/08 03:06:21;;;;;;;7.97;2.40;;;16.10;75.50;;;;;;5047113;28;20503;-80
2023/08/08 03:08:51;;;;;;;4.73;2.13;;;16.10;75.60;;;;;;5072537;28;20925;-80
2023/08/08 03:11:19;;;;;;;5.47;2.80;;;16.10;75.60;;;;;;5047137;28;20782;-81
2023/08/08 03:13:48;;;;;;;5.47;2.50;;;16.20;75.60;;;;;;5080444;28;21142;-81
2023/08/08 03:16:16;;;;;;;4.60;2.10;;;16.20;75.60;;;;;;5042689;28;20464;-78
2023/08/08 03:18:45;;;;;;;4.87;2.43;;;16.20;75.50;;;;;;5063281;28;20991;-79
2023/08/08 03:21:14;;;;;;;4.90;2.13;;;16.20;75.50;;;;;;5046117;28;21062;-80
2023/08/08 03:23:45;;;;;;;4.93;2.30;;;16.20;75.50;;;;;;5048471;28;20462;-79
2023/08/08 03:26:13;;;;;;;5.13;2.23;;;16.20;75.50;;;;;;5047948;28;20458;-80
2023/08/08 03:28:41;;;;;;;6.67;2.10;;;16.20;75.60;;;;;;5048013;28;20458;-79
2023/08/08 03:31:09;;;;;;;5.83;2.43;;;16.20;75.60;;;;;;5047994;28;20471;-79
2023/08/08 03:33:37;;;;;;;4.20;1.93;;;16.20;75.60;;;;;;5049935;28;20481;-79
2023/08/08 03:36:09;;;;;;;4.80;2.37;;;16.20;75.50;;;;;;5046907;28;20510;-78
2023/08/08 03:38:38;;;;;;;5.43;2.20;;;16.20;75.50;;;;;;5049696;28;20466;-80
2023/08/08 03:41:08;;;;;;;4.90;2.10;;;16.20;75.50;;;;;;5049526;28;20454;-80
2023/08/08 03:43:36;;;;;;;5.13;2.10;;;16.20;75.60;;;;;;5049684;28;20449;-79
2023/08/08 03:46:04;;;;;;;5.10;2.43;;;16.20;75.50;;;;;;5048386;28;21009;-79
2023/08/08 03:48:32;;;;;;;6.03;2.43;;;16.20;75.40;;;;;;5044546;28;20818;-78
2023/08/08 03:51:00;;;;;;;6.40;2.67;;;16.10;75.40;;;;;;5046938;28;20455;-81
2023/08/08 03:53:29;;;;;;;8.30;2.03;;;16.10;75.40;;;;;;5050343;28;20474;-81
2023/08/08 03:55:57;;;;;;;4.30;2.03;;;16.10;75.40;;;;;;5048431;28;20475;-81
2023/08/08 03:58:27;;;;;;;4.77;1.90;;;16.00;75.40;;;;;;5049099;28;20465;-82
2023/08/08 04:00:55;;;;;;;5.87;1.77;;;16.00;75.40;;;;;;5040642;28;20517;-80
2023/08/08 04:03:25;;;;;;;5.53;2.37;;;16.00;75.50;;;;;;5044314;28;20443;-80
2023/08/08 04:05:53;;;;;;;5.50;2.37;;;16.00;75.50;;;;;;5046446;28;20455;-79
2023/08/08 04:08:21;;;;;;;11.40;2.60;;;15.90;75.50;;;;;;5046278;28;20454;-80
2023/08/08 04:10:50;;;;;;;12.00;2.40;;;15.90;75.50;;;;;;5045568;28;20446;-80
2023/08/08 04:13:19;;;;;;;8.53;2.37;;;15.90;75.50;;;;;;5046369;28;20497;-79
2023/08/08 04:15:48;;;;;;;6.73;2.30;;;15.90;75.50;;;;;;5052414;28;20477;-80
2023/08/08 04:18:16;;;;;;;5.00;2.20;;;15.90;75.50;;;;;;5047014;28;20518;-79
2023/08/08 04:20:45;;;;;;;4.53;1.93;;;15.90;75.50;;;;;;5070361;28;20558;-80
2023/08/08 04:23:14;;;;;;;5.97;2.60;;;15.80;75.40;;;;;;5040902;28;20467;-80
2023/08/08 04:25:41;;;;;;;4.63;2.10;;;15.80;75.40;;;;;;5044133;28;20459;-80
2023/08/08 04:28:09;;;;;;;5.17;2.17;;;15.70;75.40;;;;;;5049865;28;20954;-79
2023/08/08 04:30:37;;;;;;;5.27;2.23;;;15.70;75.40;;;;;;5047091;28;20477;-80
2023/08/08 04:33:07;;;;;;;7.87;2.30;;;15.70;75.50;;;;;;5048178;28;20463;-80
2023/08/08 04:35:35;;;;;;;9.20;2.40;;;15.70;75.40;;;;;;5049279;28;20501;-81
2023/08/08 04:38:03;;;;;;;5.60;1.80;;;15.60;75.40;;;;;;5049786;28;20506;-81
2023/08/08 04:40:31;;;;;;;4.30;1.67;;;15.50;75.40;;;;;;5045693;28;21083;-80
2023/08/08 04:42:59;;;;;;;4.37;1.70;;;15.50;75.50;;;;;;5045075;28;20465;-78
2023/08/08 04:45:29;;;;;;;5.40;1.90;;;15.50;75.50;;;;;;5044799;28;20907;-79
2023/08/08 04:47:57;;;;;;;4.63;1.93;;;15.50;75.60;;;;;;5045157;28;21401;-80
2023/08/08 04:50:28;;;;;;;6.00;2.50;;;15.50;75.70;;;;;;5046308;28;20466;-79
2023/08/08 04:52:56;;;;;;;5.60;2.43;;;15.50;75.80;;;;;;5045549;28;20454;-80
2023/08/08 04:55:24;;;;;;;5.13;1.60;;;15.60;76.10;;;;;;5045485;28;20482;-80
2023/08/08 04:57:52;;;;;;;4.83;2.30;;;15.70;76.20;;;;;;5046691;28;21004;-79
2023/08/08 05:00:20;;;;;;;7.50;2.90;;;15.70;76.30;;;;;;5068256;28;20573;-80
2023/08/08 05:02:48;;;;;;;12.90;2.53;;;15.90;76.50;;;;;;5032916;28;20986;-79
2023/08/08 05:05:17;;;;;;;6.80;2.30;;;16.10;76.50;;;;;;5045338;28;20460;-79
2023/08/08 05:07:46;;;;;;;8.40;2.40;;;16.30;76.60;;;;;;5042723;28;20967;-79
2023/08/08 05:10:14;;;;;;;4.50;1.80;;;16.40;76.60;;;;;;5046725;28;21027;-78
2023/08/08 05:12:42;;;;;;;4.87;1.70;;;16.60;76.70;;;;;;5041081;28;20494;-80
2023/08/08 05:15:10;;;;;;;5.67;2.10;;;16.80;76.80;;;;;;5039934;28;20967;-79
2023/08/08 05:17:39;;;;;;;7.33;2.00;;;17.10;77.10;;;;;;5038192;28;20752;-80
2023/08/08 05:20:09;;;;;;;7.23;2.40;;;17.50;77.40;;;;;;5046363;28;20454;-81
2023/08/08 05:22:37;;;;;;;6.17;1.93;;;18.10;76.70;;;;;;5044978;28;20945;-79
2023/08/08 05:25:07;;;;;;;4.40;1.50;;;19.00;75.10;;;;;;5046542;28;20470;-80
2023/08/08 05:27:35;;;;;;;5.57;2.00;;;19.90;73.00;;;;;;5045656;28;20904;-81
2023/08/08 05:30:06;;;;;;;10.40;2.10;;;20.90;71.30;;;;;;5047289;28;20451;-79
2023/08/08 05:32:34;;;;;;;6.40;2.10;;;21.70;69.70;;;;;;5045678;28;20461;-79
2023/08/08 05:35:04;;;;;;;7.97;1.60;;;22.50;68.70;;;;;;5044564;28;20553;-80
2023/08/08 05:37:32;;;;;;;6.97;2.30;;;23.30;67.60;;;;;;5041508;28;20465;-79
2023/08/08 05:40:00;;;;;;;5.57;1.70;;;24.00;66.60;;;;;;5045599;28;20448;-80
2023/08/08 05:42:31;;;;;;;5.33;1.70;;;24.60;65.90;;;;;;5045168;28;20462;-80
2023/08/08 05:44:59;;;;;;;5.00;1.83;;;25.20;64.70;;;;;;5047120;28;20444;-80
2023/08/08 05:47:27;;;;;;;5.50;1.90;;;25.60;63.90;;;;;;5043184;28;20456;-79
2023/08/08 05:49:55;;;;;;;5.60;1.50;;;26.10;63.40;;;;;;5046147;28;20988;-79
2023/08/08 05:52:23;;;;;;;8.33;2.00;;;26.80;62.40;;;;;;5043780;28;20469;-80
2023/08/08 05:54:51;;;;;;;6.57;1.70;;;27.60;61.10;;;;;;5046500;28;20474;-79
2023/08/08 05:57:21;;;;;;;4.80;1.70;;;28.30;59.70;;;;;;5055537;28;20516;-79
2023/08/08 05:59:50;;;;;;;5.43;1.50;;;28.90;58.40;;;;;;5045049;28;20458;-79
2023/08/08 06:02:19;;;;;;;5.20;1.87;;;29.30;57.10;;;;;;5050295;28;20479;-80
2023/08/08 06:04:47;;;;;;;5.87;2.40;;;29.70;56.30;;;;;;5045046;28;20975;-82
2023/08/08 06:07:15;;;;;;;5.53;1.83;;;30.10;55.40;;;;;;5047451;28;20538;-80
2023/08/08 06:09:43;;;;;;;5.30;1.73;;;30.60;54.20;;;;;;5047929;28;20494;-80
2023/08/08 06:12:11;;;;;;;5.73;1.70;;;30.70;52.90;;;;;;5049371;28;20462;-80
2023/08/08 06:14:39;;;;;;;6.07;1.60;;;29.70;52.10;;;;;;5048187;28;21110;-80
2023/08/08 06:17:08;;;;;;;7.67;1.90;;;27.90;52.70;;;;;;5047052;28;20465;-80
2023/08/08 06:19:36;;;;;;;5.20;1.40;;;26.10;54.00;;;;;;5047574;28;20486;-83
2023/08/08 06:22:04;;;;;;;5.13;1.70;;;24.50;55.40;;;;;;5046855;28;20818;-82
2023/08/08 06:24:32;;;;;;;5.27;1.50;;;23.30;56.70;;;;;;5050909;28;20453;-80
2023/08/08 06:27:00;;;;;;;4.83;1.90;;;22.40;58.00;;;;;;5048571;28;20462;-82
2023/08/08 06:29:30;;;;;;;5.80;1.80;;;21.60;58.90;;;;;;5050213;28;20466;-84
2023/08/08 06:31:58;;;;;;;4.70;1.57;;;21.00;59.90;;;;;;5048027;28;20466;-83
2023/08/08 06:34:28;;;;;;;4.83;2.00;;;20.60;60.70;;;;;;5043354;28;20462;-82
2023/08/08 06:36:56;;;;;;;6.07;2.10;;;20.20;61.50;;;;;;5074318;28;20465;-84
2023/08/08 06:39:24;;;;;;;5.93;1.77;;;19.80;62.20;;;;;;5048055;28;21052;-80
2023/08/08 06:41:53;;;;;;;6.93;1.70;;;19.60;62.90;;;;;;5051682;28;20446;-83
2023/08/08 06:44:34;;;;;;;10.50;2.10;;;19.30;63.40;;;;;;5050153;28;20462;-80
2023/08/08 06:47:01;;;;;;;5.80;1.80;;;19.10;64.00;;;;;;5050790;28;21167;-83
2023/08/08 06:49:31;;;;;;;6.30;2.13;;;19.00;64.40;;;;;;5049531;28;20464;-83
2023/08/08 06:51:59;;;;;;;4.90;1.70;;;18.90;65.00;;;;;;5050443;28;20523;-81
2023/08/08 06:54:28;;;;;;;5.30;1.60;;;18.80;65.20;;;;;;5049564;28;20508;-85
2023/08/08 06:56:56;;;;;;;6.10;1.77;;;18.70;65.60;;;;;;5050510;28;20465;-83
2023/08/08 06:59:27;;;;;;;4.70;1.63;;;18.70;65.90;;;;;;5048561;28;20804;-81
2023/08/08 07:01:56;;;;;;;5.90;1.57;;;18.60;66.20;;;;;;5047487;28;20923;-82
2023/08/08 07:04:25;;;;;;;6.10;1.87;;;18.60;66.40;;;;;;5046071;28;20550;-83
2023/08/08 07:06:54;;;;;;;7.13;2.00;;;18.50;66.70;;;;;;5046784;28;20541;-82
2023/08/08 07:09:22;;;;;;;5.07;1.90;;;18.50;67.10;;;;;;5043375;28;20486;-80
2023/08/08 07:11:50;;;;;;;5.60;2.17;;;18.40;67.30;;;;;;5047149;28;20509;-80
2023/08/08 07:14:18;;;;;;;4.13;1.60;;;18.40;67.40;;;;;;5049290;28;20902;-81
2023/08/08 07:16:48;;;;;;;5.30;2.10;;;18.40;67.50;;;;;;5052566;28;20540;-82
2023/08/08 07:19:16;;;;;;;5.80;1.87;;;18.40;67.70;;;;;;5048145;28;21168;-80
2023/08/08 07:21:44;;;;;;;5.70;1.87;;;18.50;67.80;;;;;;5043143;28;20505;-79
2023/08/08 07:24:14;;;;;;;6.03;1.70;;;18.40;68.00;;;;;;5043551;28;20509;-79
2023/08/08 07:26:41;;;;;;;6.30;2.40;;;18.40;68.10;;;;;;5054913;28;20466;-80
2023/08/08 07:29:09;;;;;;;5.23;1.57;;;18.40;68.20;;;;;;5048551;28;20467;-81
2023/08/08 07:31:37;;;;;;;6.43;1.77;;;18.40;68.20;;;;;;5045462;28;20473;-83
2023/08/08 07:34:06;;;;;;;4.33;1.73;;;18.40;68.40;;;;;;5050044;28;20524;-81
2023/08/08 07:36:34;;;;;;;4.70;1.80;;;18.50;68.50;;;;;;5049043;28;20576;-81
2023/08/08 07:39:02;;;;;;;5.10;1.93;;;18.40;68.50;;;;;;5046298;28;20492;-80
2023/08/08 07:41:32;;;;;;;9.00;1.80;;;18.50;68.50;;;;;;5049567;28;20518;-81
2023/08/08 07:44:00;;;;;;;4.77;1.53;;;18.50;68.40;;;;;;5050992;28;21309;-82
2023/08/08 07:46:28;;;;;;;3.97;1.40;;;18.50;68.40;;;;;;5050909;28;20512;-83
2023/08/08 07:48:59;;;;;;;6.47;1.53;;;18.50;68.40;;;;;;5044678;28;20461;-83
2023/08/08 07:51:27;;;;;;;4.70;1.37;;;18.50;68.40;;;;;;5049959;28;20461;-80
2023/08/08 07:53:55;;;;;;;5.97;1.70;;;18.60;68.20;;;;;;5045144;28;20828;-84
2023/08/08 07:56:22;;;;;;;6.03;1.73;;;18.60;68.30;;;;;;5044742;28;20482;-83
2023/08/08 07:58:52;;;;;;;5.17;1.50;;;18.60;68.30;;;;;;5045059;28;20462;-84
2023/08/08 08:01:20;;;;;;;6.10;1.63;;;18.60;68.20;;;;;;5045461;28;20475;-79
2023/08/08 08:03:48;;;;;;;6.57;1.50;;;18.60;68.10;;;;;;5047475;28;20565;-82
2023/08/08 08:06:17;;;;;;;4.50;1.23;;;18.60;68.00;;;;;;5061976;28;20505;-80
2023/08/08 08:08:45;;;;;;;4.90;1.50;;;18.60;67.80;;;;;;5049283;28;21211;-82
2023/08/08 08:11:15;;;;;;;4.53;1.63;;;18.70;67.60;;;;;;5051321;28;20458;-81
2023/08/08 08:14:03;;;;;;;6.10;1.60;;;18.70;67.40;;;;;;5047825;28;20494;-82
2023/08/08 08:16:31;;;;;;;4.83;1.63;;;18.70;67.20;;;;;;5029869;28;20489;-80
2023/08/08 08:19:02;;;;;;;4.60;1.20;;;18.70;67.30;;;;;;5038312;28;20466;-83
2023/08/08 08:21:30;;;;;;;4.20;1.10;;;18.70;67.10;;;;;;5039827;28;20558;-82
2023/08/08 08:23:58;;;;;;;5.23;1.80;;;18.70;67.10;;;;;;5069433;28;20494;-80
2023/08/08 08:26:26;;;;;;;4.60;1.60;;;18.80;67.00;;;;;;5046361;28;20486;-81
2023/08/08 08:28:54;;;;;;;8.43;1.53;;;18.80;66.80;;;;;;5048599;28;20467;-81
2023/08/08 08:31:24;;;;;;;4.40;1.50;;;18.80;66.60;;;;;;5044311;28;21030;-82
2023/08/08 08:33:54;;;;;;;5.97;1.67;;;18.80;66.50;;;;;;5036609;28;20868;-82
2023/08/08 08:36:23;;;;;;;4.17;1.30;;;18.90;66.30;;;;;;5046402;28;20516;-81
2023/08/08 08:38:51;;;;;;;4.50;1.60;;;18.80;66.20;;;;;;5043522;28;20462;-80
2023/08/08 08:41:22;;;;;;;4.53;1.30;;;18.80;66.00;;;;;;5041808;28;20969;-81
2023/08/08 08:43:50;;;;;;;4.50;1.43;;;18.80;65.80;;;;;;5038851;28;20987;-84
2023/08/08 08:46:21;;;;;;;5.27;1.20;;;18.80;65.80;;;;;;5044418;28;20529;-80
2023/08/08 08:48:52;;;;;;;8.00;1.53;;;18.90;65.80;;;;;;5047626;28;20462;-82
2023/08/08 08:51:20;;;;;;;4.53;1.40;;;18.90;65.70;;;;;;5042397;28;20886;-82
2023/08/08 08:53:48;;;;;;;4.90;1.43;;;18.90;65.60;;;;;;5047302;28;20453;-83
2023/08/08 08:56:17;;;;;;;6.70;1.60;;;19.00;65.40;;;;;;5045170;28;20490;-80
2023/08/08 08:58:45;;;;;;;6.67;1.63;;;19.00;65.40;;;;;;5045461;28;21023;-82
2023/08/08 09:01:13;;;;;;;4.47;1.33;;;19.00;65.20;;;;;;5044607;28;20529;-80
2023/08/08 09:03:42;;;;;;;6.30;1.83;;;19.10;65.10;;;;;;5045292;28;20471;-79
2023/08/08 09:06:12;;;;;;;4.37;1.30;;;19.10;65.00;;;;;;5046218;28;20968;-85
2023/08/08 09:08:40;;;;;;;4.13;1.20;;;19.20;64.90;;;;;;5046211;28;20455;-84
2023/08/08 09:11:08;;;;;;;4.37;1.43;;;19.20;64.70;;;;;;5045614;28;20457;-82
2023/08/08 09:13:39;;;;;;;3.80;1.00;;;19.30;64.70;;;;;;5041835;28;20459;-81
2023/08/08 09:16:09;;;;;;;5.43;1.53;;;19.30;64.40;;;;;;5044948;28;20479;-81
2023/08/08 09:18:38;;;;;;;4.13;1.43;;;19.40;64.30;;;;;;5046434;28;20460;-84
2023/08/08 09:21:06;;;;;;;5.87;1.30;;;19.40;64.20;;;;;;5037238;28;20462;-82
2023/08/08 09:23:37;;;;;;;5.67;1.50;;;19.40;63.90;;;;;;5045469;28;20553;-82
2023/08/08 09:26:06;;;;;;;5.23;1.40;;;19.50;63.70;;;;;;5042964;28;20480;-84
2023/08/08 09:28:34;;;;;;;7.23;1.80;;;19.50;63.60;;;;;;5046691;28;20474;-84
2023/08/08 09:31:02;;;;;;;4.20;1.07;;;19.50;63.40;;;;;;5042469;28;20470;-82
2023/08/08 09:33:30;;;;;;;5.77;1.47;;;19.50;63.20;;;;;;5046377;28;20461;-82
2023/08/08 09:35:58;;;;;;;5.27;1.10;;;19.50;63.00;;;;;;5044671;28;20529;-81
2023/08/08 09:38:26;;;;;;;3.93;1.20;;;19.50;62.90;;;;;;5044066;28;20470;-83
2023/08/08 09:40:56;;;;;;;4.93;1.30;;;19.50;62.90;;;;;;5042075;28;20468;-83
2023/08/08 09:43:25;;;;;;;5.50;1.33;;;19.50;62.80;;;;;;5043670;28;20957;-82
2023/08/08 09:45:54;;;;;;;4.37;1.40;;;19.50;62.60;;;;;;5040988;28;20454;-81
2023/08/08 09:48:22;;;;;;;6.43;1.60;;;19.50;62.30;;;;;;5041334;28;20486;-83
2023/08/08 09:50:51;;;;;;;4.80;1.90;;;19.50;62.40;;;;;;5069319;28;20470;-80
2023/08/08 09:53:20;;;;;;;4.40;1.07;;;19.50;62.40;;;;;;5076632;28;20451;-82
2023/08/08 09:55:49;;;;;;;5.53;1.47;;;19.60;62.30;;;;;;5048377;28;20447;-82
2023/08/08 09:58:18;;;;;;;5.20;1.40;;;19.60;62.20;;;;;;5053316;28;20479;-81
2023/08/08 10:00:47;;;;;;;4.40;1.30;;;19.60;61.90;;;;;;5072241;28;21080;-83
2023/08/08 10:03:15;;;;;;;5.40;1.20;;;19.70;61.90;;;;;;5037770;28;20470;-82
2023/08/08 10:05:43;;;;;;;7.20;1.57;;;19.70;61.70;;;;;;5047928;28;20939;-82
2023/08/08 10:08:12;;;;;;;7.93;1.67;;;19.70;61.80;;;;;;5079113;28;20446;-83
2023/08/08 10:10:47;;;;;;;6.67;1.50;;;19.80;62.00;;;;;;5069717;28;20521;-83
2023/08/08 10:13:22;;;;;;;8.17;1.50;;;19.80;62.00;;;;;;5040745;28;20462;-80
2023/08/08 10:15:51;;;;;;;5.83;1.60;;;19.90;61.90;;;;;;5042683;28;20508;-83
2023/08/08 10:18:21;;;;;;;4.60;1.47;;;20.00;62.00;;;;;;5045865;28;20482;-82
2023/08/08 10:20:50;;;;;;;4.90;1.70;;;20.10;62.00;;;;;;5067761;28;20487;-81
2023/08/08 10:23:19;;;;;;;4.33;1.40;;;20.10;61.80;;;;;;5049559;28;20493;-82
2023/08/08 10:25:49;;;;;;;4.80;1.30;;;20.10;61.30;;;;;;5047082;28;20469;-84
2023/08/08 10:28:21;;;;;;;5.57;1.40;;;20.10;61.50;;;;;;5042519;28;21355;-82
2023/08/08 10:30:55;;;;;;;4.33;1.40;;;20.20;61.50;;;;;;5041764;28;20470;-81
2023/08/08 10:33:25;;;;;;;4.37;1.30;;;20.20;61.20;;;;;;5040153;28;20463;-83
2023/08/08 10:36:01;;;;;;;6.00;1.43;;;20.30;61.10;;;;;;5046763;28;20467;-81
2023/08/08 10:38:41;;;;;;;6.50;2.00;;;20.30;61.00;;;;;;5072469;28;20954;-83
2023/08/08 10:41:12;;;;;;;5.10;1.73;;;20.40;61.00;;;;;;5042705;28;20538;-82
2023/08/08 10:43:49;;;;;;;5.40;1.60;;;20.40;61.00;;;;;;5044199;28;20921;-82
2023/08/08 10:46:25;;;;;;;8.07;1.50;;;20.40;60.90;;;;;;5048608;28;20503;-82
2023/08/08 10:48:54;;;;;;;6.17;1.63;;;20.40;60.70;;;;;;5045854;28;20482;-83
2023/08/08 10:51:22;;;;;;;6.27;1.33;;;20.40;60.70;;;;;;5051318;28;20450;-82
2023/08/08 10:53:53;;;;;;;4.77;1.47;;;20.50;60.80;;;;;;5051419;28;20462;-84
2023/08/08 10:56:23;;;;;;;5.63;1.50;;;20.50;60.70;;;;;;5046256;28;20828;-80
2023/08/08 10:58:53;;;;;;;4.73;1.23;;;20.50;60.70;;;;;;5044158;28;20483;-83
2023/08/08 11:01:26;;;;;;;5.80;1.80;;;20.60;60.60;;;;;;5047694;28;20738;-82
2023/08/08 11:03:58;;;;;;;4.30;1.40;;;20.60;60.50;;;;;;5050906;28;20561;-83
2023/08/08 11:06:27;;;;;;;5.53;1.73;;;20.60;60.50;;;;;;5043320;28;20571;-82
2023/08/08 11:08:55;;;;;;;5.07;1.57;;;20.70;60.50;;;;;;5051263;28;20540;-84
2023/08/08 11:11:24;;;;;;;5.47;1.83;;;20.70;60.50;;;;;;5048857;28;20453;-84
2023/08/08 11:13:54;;;;;;;4.73;1.60;;;20.70;60.50;;;;;;5050331;28;20457;-81
2023/08/08 11:16:22;;;;;;;7.50;1.90;;;20.70;60.50;;;;;;5046275;28;20512;-82
2023/08/08 11:18:50;;;;;;;5.10;1.60;;;20.80;60.40;;;;;;5050912;28;20494;-80
2023/08/08 11:21:18;;;;;;;7.33;1.90;;;20.80;60.30;;;;;;5050098;28;20443;-84
2023/08/08 11:23:48;;;;;;;5.33;1.60;;;20.80;60.10;;;;;;5046287;28;20509;-82
2023/08/08 11:26:19;;;;;;;11.10;2.00;;;20.80;60.00;;;;;;5046715;28;20497;-81
2023/08/08 11:28:51;;;;;;;8.70;2.10;;;20.80;60.00;;;;;;5049761;28;20534;-81
2023/08/08 11:31:21;;;;;;;6.30;1.70;;;20.80;59.90;;;;;;5046625;28;20477;-80
2023/08/08 11:33:50;;;;;;;7.60;1.53;;;20.80;60.00;;;;;;5046898;28;20542;-82
2023/08/08 11:36:19;;;;;;;9.60;1.90;;;20.80;60.10;;;;;;5048568;28;20454;-80
2023/08/08 11:38:47;;;;;;;9.57;1.80;;;20.90;60.00;;;;;;5047535;28;20479;-83
2023/08/08 11:41:17;;;;;;;5.27;1.60;;;20.90;59.80;;;;;;5051065;28;20447;-81
2023/08/08 11:43:48;;;;;;;5.73;1.70;;;20.90;59.70;;;;;;5050336;28;20451;-81
2023/08/08 11:46:17;;;;;;;5.20;1.80;;;20.90;59.90;;;;;;5043860;28;20535;-83
2023/08/08 11:48:48;;;;;;;4.30;1.40;;;21.00;60.00;;;;;;5048566;28;20490;-82
2023/08/08 11:51:17;;;;;;;6.70;1.90;;;21.00;60.10;;;;;;5049243;28;20464;-79
2023/08/08 11:53:52;;;;;;;6.57;1.87;;;21.10;60.20;;;;;;5039710;28;20494;-82
2023/08/08 11:56:21;;;;;;;6.00;1.47;;;21.10;60.10;;;;;;5047772;28;20891;-81
2023/08/08 11:58:52;;;;;;;5.00;1.57;;;21.10;60.10;;;;;;5043830;28;20557;-81
2023/08/08 12:01:21;;;;;;;8.13;1.70;;;21.10;60.00;;;;;;5040724;28;20906;-84
2023/08/08 12:03:51;;;;;;;4.60;1.50;;;21.10;60.20;;;;;;5043088;28;20455;-82
2023/08/08 12:06:19;;;;;;;6.43;2.00;;;21.10;60.20;;;;;;5041236;28;20462;-80
2023/08/08 12:08:50;;;;;;;9.03;1.73;;;21.10;60.20;;;;;;5049707;28;20960;-81
2023/08/08 12:11:18;;;;;;;5.60;1.77;;;21.20;60.10;;;;;;5038228;28;20454;-83
2023/08/08 12:13:58;;;;;;;4.73;1.30;;;21.30;59.90;;;;;;5049744;28;20512;-80
2023/08/08 12:16:29;;;;;;;5.70;1.73;;;21.30;59.80;;;;;;5073089;28;20468;-81
2023/08/08 12:19:02;;;;;;;5.43;1.93;;;21.30;59.80;;;;;;5046950;28;20983;-81
2023/08/08 12:21:33;;;;;;;4.57;1.50;;;21.30;59.60;;;;;;5073042;28;20460;-84
2023/08/08 12:24:01;;;;;;;4.50;1.57;;;21.40;59.50;;;;;;5046247;28;20463;-83
2023/08/08 12:26:29;;;;;;;6.07;1.60;;;21.40;59.50;;;;;;5042040;28;20449;-79
2023/08/08 12:28:57;;;;;;;5.80;1.73;;;21.40;59.50;;;;;;5049223;28;20459;-83
2023/08/08 12:31:25;;;;;;;6.57;1.93;;;21.40;59.70;;;;;;5043304;28;20493;-80
2023/08/08 12:33:54;;;;;;;5.17;1.80;;;21.40;59.50;;;;;;5079192;28;20988;-80
2023/08/08 12:36:24;;;;;;;5.60;1.67;;;21.40;59.40;;;;;;5050437;28;20450;-81
2023/08/08 12:38:52;;;;;;;7.90;1.90;;;21.50;59.40;;;;;;5046443;28;21109;-83
2023/08/08 12:41:20;;;;;;;6.50;1.77;;;21.40;59.30;;;;;;5039827;28;20550;-82
2023/08/08 12:43:48;;;;;;;4.73;1.67;;;21.40;59.10;;;;;;5039778;28;20977;-82
2023/08/08 12:46:16;;;;;;;5.83;1.97;;;21.40;59.20;;;;;;5047465;28;20546;-82
2023/08/08 12:48:46;;;;;;;6.13;2.03;;;21.40;59.10;;;;;;5040352;28;20451;-83
2023/08/08 12:51:15;;;;;;;5.50;1.93;;;21.40;59.00;;;;;;5042585;28;20483;-81
2023/08/08 12:53:45;;;;;;;5.30;2.10;;;21.40;59.10;;;;;;5044448;28;20466;-80
2023/08/08 12:56:13;;;;;;;5.83;1.83;;;21.40;58.90;;;;;;5079141;28;20494;-83
2023/08/08 12:58:41;;;;;;;5.73;2.20;;;21.40;59.00;;;;;;5044408;28;20557;-84
2023/08/08 13:01:09;;;;;;;6.60;1.63;;;21.50;59.00;;;;;;5040245;28;20484;-84
2023/08/08 13:03:37;;;;;;;6.20;2.00;;;21.50;58.90;;;;;;5044212;28;20471;-84